createdAt,value
2022-08-16T00:00:03.222Z,4.97
2022-08-16T00:05:35.085Z,5.03
2022-08-16T00:11:06.578Z,5.38
2022-08-16T00:17:01.435Z,4.28
2022-08-16T00:22:25.502Z,5.28
2022-08-16T00:27:58.268Z,5.40
2022-08-16T00:33:28.358Z,4.70
2022-08-16T00:38:59.695Z,4.97
2022-08-16T00:44:32.702Z,4.80
2022-08-16T00:50:01.584Z,5.95
2022-08-16T00:55:37.818Z,4.88
2022-08-16T01:01:10.654Z,6.47
2022-08-16T01:06:49.236Z,5.70
2022-08-16T01:12:29.695Z,6.40
2022-08-16T01:18:01.530Z,6.30
2022-08-16T01:23:58.628Z,5.63
2022-08-16T01:35:27.972Z,6.22
2022-08-16T01:41:01.902Z,6.50
2022-08-16T01:46:40.277Z,6.80
2022-08-16T01:52:29.234Z,6.85
2022-08-16T01:58:25.238Z,6.90
2022-08-16T02:03:58.544Z,6.20
2022-08-16T02:09:41.246Z,7.40
2022-08-16T02:15:12.322Z,8.38
2022-08-16T02:20:48.031Z,7.32
2022-08-16T02:26:19.019Z,7.18
2022-08-16T02:32:03.231Z,6.78
2022-08-16T02:37:39.711Z,6.90
2022-08-16T02:43:26.437Z,7.40
2022-08-16T02:49:00.360Z,7.43
2022-08-16T02:54:33.033Z,6.53
2022-08-16T03:00:34.658Z,6.85
2022-08-16T03:05:59.452Z,7.30
2022-08-16T03:11:35.482Z,6.75
2022-08-16T03:17:05.874Z,7.22
2022-08-16T03:22:40.941Z,7.82
2022-08-16T03:28:17.928Z,7.50
2022-08-16T03:33:52.284Z,6.50
2022-08-16T03:39:23.671Z,6.90
2022-08-16T03:45:03.981Z,7.40
2022-08-16T03:50:37.594Z,6.80
2022-08-16T03:56:20.723Z,6.22
2022-08-16T04:01:53.977Z,5.80
2022-08-16T04:07:24.776Z,5.82
2022-08-16T04:13:00.633Z,5.32
2022-08-16T04:18:36.982Z,5.13
2022-08-16T04:24:08.037Z,5.43
2022-08-16T04:29:44.067Z,6.00
2022-08-16T04:35:20.181Z,6.47
2022-08-16T04:40:52.530Z,5.85
2022-08-16T04:46:29.929Z,5.68
2022-08-16T04:52:34.262Z,6.85
2022-08-16T04:58:03.001Z,6.00
2022-08-16T05:03:59.800Z,5.70
2022-08-16T05:09:36.301Z,6.70
2022-08-16T05:15:08.830Z,7.30
2022-08-16T05:21:01.140Z,7.95
2022-08-16T05:26:32.675Z,9.00
2022-08-16T05:32:02.553Z,8.98
2022-08-16T05:37:39.897Z,9.10
2022-08-16T05:43:13.746Z,7.97
2022-08-16T05:48:43.491Z,7.93
2022-08-16T05:54:25.835Z,9.68
2022-08-16T06:00:04.462Z,7.53
2022-08-16T06:05:41.719Z,9.20
2022-08-16T06:11:13.385Z,10.45
2022-08-16T06:16:50.710Z,10.05
2022-08-16T06:22:39.117Z,9.60
2022-08-16T06:28:17.106Z,10.48
2022-08-16T06:33:48.757Z,11.00
2022-08-16T06:39:21.567Z,11.48
2022-08-16T06:44:58.326Z,11.32
2022-08-16T06:51:00.926Z,12.27
2022-08-16T06:56:31.276Z,11.93
2022-08-16T07:02:33.033Z,13.03
2022-08-16T07:08:00.133Z,14.07
2022-08-16T07:14:00.360Z,13.80
2022-08-16T07:19:21.516Z,13.70
2022-08-16T07:24:51.641Z,11.82
2022-08-16T07:30:45.567Z,10.05
2022-08-16T07:36:14.931Z,11.27
2022-08-16T07:41:53.587Z,10.63
2022-08-16T07:47:24.399Z,13.77
2022-08-16T07:52:54.493Z,12.95
2022-08-16T07:58:34.955Z,12.05
2022-08-16T08:04:13.032Z,11.73
2022-08-16T08:09:44.261Z,10.75
2022-08-16T08:15:23.042Z,11.27
2022-08-16T08:20:58.947Z,10.73
2022-08-16T08:26:31.378Z,7.82
2022-08-16T08:32:03.020Z,10.73
2022-08-16T08:37:54.792Z,11.02
2022-08-16T08:43:27.334Z,10.40
2022-08-16T08:49:03.435Z,8.90
2022-08-16T08:54:39.616Z,8.43
2022-08-16T09:00:13.871Z,7.93
2022-08-16T09:05:51.277Z,7.50
2022-08-16T09:11:21.521Z,8.32
2022-08-16T09:17:11.885Z,7.80
2022-08-16T09:22:51.378Z,7.55
2022-08-16T09:29:13.750Z,8.25
2022-08-16T09:34:21.909Z,7.50
2022-08-16T09:39:52.782Z,8.45
2022-08-16T09:45:22.728Z,7.68
2022-08-16T09:50:52.840Z,7.45
2022-08-16T09:56:31.648Z,7.63
2022-08-16T10:02:25.828Z,7.18
2022-08-16T10:07:55.881Z,9.15
2022-08-16T10:13:27.009Z,8.07
2022-08-16T10:19:06.367Z,8.48
2022-08-16T10:24:35.680Z,9.17
2022-08-16T10:30:25.653Z,9.23
2022-08-16T10:35:57.632Z,9.00
2022-08-16T10:41:28.652Z,9.23
2022-08-16T10:46:59.820Z,9.10
2022-08-16T10:58:12.005Z,8.13
2022-08-16T11:03:45.743Z,17.90
2022-08-16T11:09:25.228Z,9.80
2022-08-16T11:15:13.517Z,8.25
2022-08-16T11:20:49.111Z,9.43
2022-08-16T11:26:23.632Z,9.43
2022-08-16T11:31:53.808Z,8.85
2022-08-16T11:37:27.514Z,9.80
2022-08-16T11:43:04.700Z,9.18
2022-08-16T11:48:34.768Z,9.10
2022-08-16T11:54:05.289Z,8.95
2022-08-16T11:59:40.274Z,8.13
2022-08-16T12:05:12.952Z,9.13
2022-08-16T12:10:45.566Z,10.40
2022-08-16T12:16:17.567Z,8.27
2022-08-16T12:21:58.464Z,9.27
2022-08-16T12:27:29.634Z,9.48
2022-08-16T12:33:03.198Z,7.53
2022-08-16T12:38:41.130Z,8.02
2022-08-16T12:44:20.081Z,7.78
2022-08-16T12:49:49.734Z,5.75
2022-08-16T12:55:18.699Z,6.45
2022-08-16T13:00:49.625Z,5.88
2022-08-16T13:06:19.925Z,6.40
2022-08-16T13:12:00.406Z,5.22
2022-08-16T13:17:30.727Z,4.97
2022-08-16T13:23:01.972Z,5.38
2022-08-16T13:28:32.358Z,5.22
2022-08-16T13:34:03.357Z,4.80
2022-08-16T13:39:40.361Z,4.55
2022-08-16T13:45:15.479Z,4.55
2022-08-16T13:50:51.507Z,4.15
2022-08-16T13:56:24.996Z,5.03
2022-08-16T14:01:59.883Z,5.03
2022-08-16T14:07:32.622Z,4.87
2022-08-16T14:13:06.810Z,5.30
2022-08-16T14:18:42.818Z,4.23
2022-08-16T14:24:29.708Z,4.70
2022-08-16T14:30:01.949Z,4.10
2022-08-16T14:35:48.332Z,4.57
2022-08-16T14:41:20.187Z,4.03
2022-08-16T14:46:49.570Z,4.07
2022-08-16T14:52:51.904Z,4.35
2022-08-16T14:58:18.899Z,4.30
2022-08-16T15:03:49.445Z,4.32
2022-08-16T15:09:24.941Z,4.55
2022-08-16T15:14:56.765Z,3.78
2022-08-16T15:20:29.514Z,3.63
2022-08-16T15:26:03.832Z,3.78
2022-08-16T15:31:34.950Z,3.38
2022-08-16T15:37:05.205Z,4.32
2022-08-16T15:42:35.696Z,3.50
2022-08-16T15:48:06.439Z,3.67
2022-08-16T15:53:37.672Z,3.75
2022-08-16T15:59:11.483Z,4.00
2022-08-16T16:04:44.672Z,4.72
2022-08-16T16:10:13.707Z,3.70
2022-08-16T16:15:45.257Z,3.95
2022-08-16T16:21:19.851Z,4.15
2022-08-16T16:26:49.196Z,4.25
2022-08-16T16:32:19.638Z,4.85
2022-08-16T16:38:08.097Z,4.05
2022-08-16T16:43:40.454Z,3.75
2022-08-16T16:49:10.612Z,4.00
2022-08-16T16:54:41.642Z,4.07
2022-08-16T17:00:26.210Z,5.22
2022-08-16T17:06:08.874Z,3.92
2022-08-16T17:11:42.807Z,3.83
2022-08-16T17:23:01.120Z,4.05
2022-08-16T17:28:58.071Z,4.30
2022-08-16T17:34:29.585Z,4.63
2022-08-16T17:39:26.422Z,3.40
2022-08-16T17:40:00.066Z,5.20
2022-08-16T17:45:31.122Z,4.15
2022-08-16T17:51:00.776Z,3.47
2022-08-16T17:56:29.549Z,4.10
2022-08-16T18:01:59.786Z,3.55
2022-08-16T18:07:44.004Z,4.50
2022-08-16T18:13:13.735Z,5.90
2022-08-16T18:18:44.094Z,3.80
2022-08-16T18:24:14.936Z,3.60
2022-08-16T18:29:45.116Z,3.95
2022-08-16T18:35:17.026Z,4.53
2022-08-16T18:40:46.465Z,3.80
2022-08-16T18:46:15.398Z,4.38
2022-08-16T18:51:46.117Z,4.65
2022-08-16T18:57:15.407Z,4.30
2022-08-16T19:02:58.162Z,3.92
2022-08-16T19:08:30.261Z,4.00
2022-08-16T19:13:59.506Z,4.78
2022-08-16T19:19:28.620Z,3.80
2022-08-16T19:24:58.926Z,3.88
2022-08-16T19:30:28.343Z,4.15
2022-08-16T19:35:57.299Z,4.10
2022-08-16T19:41:27.372Z,4.22
2022-08-16T19:46:56.764Z,4.03
2022-08-16T19:52:28.856Z,4.63
2022-08-16T19:58:00.269Z,5.10
2022-08-16T20:03:29.689Z,4.40
2022-08-16T20:08:59.094Z,3.85
2022-08-16T20:14:31.012Z,3.92
2022-08-16T20:20:00.249Z,4.15
2022-08-16T20:25:30.865Z,4.50
2022-08-16T20:31:03.659Z,3.90
2022-08-16T20:36:32.459Z,4.78
2022-08-16T20:42:00.992Z,4.13
2022-08-16T20:47:32.326Z,4.40
2022-08-16T20:53:01.132Z,4.82
2022-08-16T20:58:30.033Z,4.82
2022-08-16T21:04:00.577Z,4.28
2022-08-16T21:09:33.602Z,4.90
2022-08-16T21:15:08.365Z,5.10
2022-08-16T21:20:38.429Z,4.47
2022-08-16T21:26:10.768Z,4.45
2022-08-16T21:31:41.202Z,5.18
2022-08-16T21:37:12.156Z,4.68
2022-08-16T21:42:45.504Z,4.90
2022-08-16T21:48:14.621Z,5.05
2022-08-16T21:53:45.027Z,4.80
2022-08-16T21:59:16.525Z,4.80
2022-08-16T22:04:45.350Z,5.07
2022-08-16T22:11:06.663Z,5.03
2022-08-16T22:16:04.936Z,4.93
2022-08-16T22:21:35.214Z,4.97
2022-08-16T22:27:05.710Z,4.88
2022-08-16T22:32:39.741Z,5.50
2022-08-16T22:38:54.647Z,6.32
2022-08-16T22:44:00.200Z,6.18
2022-08-16T22:49:29.562Z,6.82
2022-08-16T22:54:57.898Z,5.47
2022-08-16T23:00:31.041Z,5.78
2022-08-16T23:06:00.871Z,5.60
2022-08-16T23:11:30.042Z,5.05
2022-08-16T23:17:00.452Z,5.63
2022-08-16T23:22:29.008Z,5.70
2022-08-16T23:27:59.022Z,5.50
2022-08-16T23:33:29.679Z,5.70
2022-08-16T23:38:59.445Z,6.35
2022-08-16T23:44:56.003Z,6.10
2022-08-16T23:50:19.689Z,6.38
2022-08-16T23:55:51.333Z,5.75
